Time;durP1;ratioP1;P1;durP2;ratioP2;P2;SDS_P1;SDS_P2;PMS_P1;PMS_P2;Temp;Humidity;BMP_temperature;BMP_pressure;BME280_temperature;BME280_humidity;BME280_pressure;Samples;Min_cycle;Max_cycle;Signal;HPM_P1;HPM_P2
2022/12/09 00:01:08;;;;;;;10.32;8.82;;;-0.70;99.90;;;;;;5091162;28;20816;-71
2022/12/09 00:03:34;;;;;;;15.97;10.27;;;-0.80;99.90;;;;;;5090642;28;20389;-71
2022/12/09 00:06:06;;;;;;;11.68;9.20;;;-0.80;99.90;;;;;;5091298;28;20382;-70
2022/12/09 00:08:31;;;;;;;10.90;9.60;;;-0.90;99.90;;;;;;5091298;28;20392;-71
2022/12/09 00:10:57;;;;;;;12.77;9.63;;;-1.00;99.90;;;;;;5091182;28;20386;-71
2022/12/09 00:13:22;;;;;;;10.37;8.60;;;-1.00;99.90;;;;;;5089074;28;20443;-69
2022/12/09 00:15:48;;;;;;;10.53;8.97;;;-0.90;99.90;;;;;;5090297;28;20405;-69
2022/12/09 00:18:13;;;;;;;10.83;9.47;;;-1.00;99.90;;;;;;5091110;28;20879;-69
2022/12/09 00:20:39;;;;;;;27.90;15.63;;;-1.00;99.90;;;;;;5090988;28;20794;-69
2022/12/09 00:23:05;;;;;;;24.80;15.00;;;-1.00;99.90;;;;;;5089007;28;20378;-68
2022/12/09 00:25:30;;;;;;;27.15;14.68;;;-0.90;99.90;;;;;;5090680;28;20823;-69
2022/12/09 00:27:56;;;;;;;24.30;13.40;;;-1.00;99.90;;;;;;5090765;28;20466;-69
2022/12/09 00:30:22;;;;;;;20.70;12.17;;;-1.00;99.90;;;;;;5089567;28;20401;-69
2022/12/09 00:32:47;;;;;;;17.70;11.33;;;-1.00;99.90;;;;;;5090102;28;20383;-69
2022/12/09 00:35:13;;;;;;;13.40;11.00;;;-1.10;99.90;;;;;;5090796;28;20406;-69
2022/12/09 00:37:38;;;;;;;13.83;10.57;;;-1.10;99.90;;;;;;5090641;28;20752;-69
2022/12/09 00:40:04;;;;;;;13.63;10.57;;;-1.00;99.90;;;;;;5090746;28;20382;-69
2022/12/09 00:42:30;;;;;;;11.88;9.73;;;-1.20;99.90;;;;;;5090125;28;20454;-69
2022/12/09 00:44:55;;;;;;;14.17;10.20;;;-1.20;99.90;;;;;;5089142;28;20450;-69
2022/12/09 00:47:21;;;;;;;12.57;9.93;;;-1.20;99.90;;;;;;5090626;28;20384;-69
2022/12/09 00:49:46;;;;;;;12.40;9.13;;;-1.20;99.90;;;;;;5090561;28;20424;-69
2022/12/09 00:52:12;;;;;;;12.80;10.10;;;-1.20;99.90;;;;;;5089200;28;20497;-69
2022/12/09 00:54:37;;;;;;;12.57;9.93;;;-1.20;99.90;;;;;;5088642;28;20397;-69
2022/12/09 00:57:04;;;;;;;12.60;9.20;;;-1.10;99.90;;;;;;5090504;28;20413;-69
2022/12/09 00:59:29;;;;;;;11.68;9.23;;;-1.10;99.90;;;;;;5090501;28;20461;-69
2022/12/09 01:01:55;;;;;;;9.30;8.30;;;-1.10;99.90;;;;;;5090451;28;20469;-69
2022/12/09 01:04:21;;;;;;;11.70;9.03;;;-1.10;99.90;;;;;;5089861;28;20402;-70
2022/12/09 01:06:46;;;;;;;10.68;8.82;;;-1.20;99.90;;;;;;5090446;28;20936;-69
2022/12/09 01:09:12;;;;;;;11.30;9.13;;;-1.10;99.90;;;;;;5090639;28;20382;-70
2022/12/09 01:11:38;;;;;;;10.73;8.82;;;-1.20;99.90;;;;;;5090493;28;20428;-69
2022/12/09 01:14:03;;;;;;;12.27;9.37;;;-1.10;99.90;;;;;;5090022;28;20417;-69
2022/12/09 01:16:32;;;;;;;9.80;8.20;;;-1.10;99.90;;;;;;5090459;28;20418;-69
2022/12/09 01:18:59;;;;;;;11.23;9.05;;;-1.10;99.90;;;;;;5090618;28;20382;-69
2022/12/09 01:21:26;;;;;;;10.80;8.60;;;-1.30;99.90;;;;;;5090345;28;20382;-69
2022/12/09 01:23:52;;;;;;;11.18;9.23;;;-1.30;99.90;;;;;;5089788;28;20382;-69
2022/12/09 01:26:18;;;;;;;10.95;9.10;;;-1.30;99.90;;;;;;5090315;28;20382;-69
2022/12/09 01:28:44;;;;;;;10.47;8.90;;;-1.30;99.90;;;;;;5075784;28;20398;-69
2022/12/09 01:31:12;;;;;;;10.50;8.52;;;-1.30;99.90;;;;;;5094253;28;20415;-70
2022/12/09 01:33:38;;;;;;;11.35;9.20;;;-1.30;99.90;;;;;;5093621;28;20389;-70
2022/12/09 01:36:10;;;;;;;12.15;9.10;;;-1.20;99.90;;;;;;5094162;28;20402;-69
2022/12/09 01:38:36;;;;;;;12.60;9.82;;;-1.40;99.90;;;;;;5094047;28;20378;-69
2022/12/09 01:41:02;;;;;;;12.00;9.20;;;-1.10;99.90;;;;;;5093864;28;20713;-70
2022/12/09 01:43:28;;;;;;;12.85;8.60;;;-1.10;99.90;;;;;;5093210;28;20397;-70
2022/12/09 01:45:54;;;;;;;11.87;8.63;;;-1.20;99.90;;;;;;5075685;28;20394;-70
2022/12/09 01:48:22;;;;;;;11.15;8.77;;;-1.20;99.90;;;;;;5093957;28;20400;-70
2022/12/09 01:50:53;;;;;;;11.55;9.05;;;-1.20;99.90;;;;;;5106941;22;20414;-69
2022/12/09 01:53:23;;;;;;;11.30;8.17;;;-1.20;99.90;;;;;;5052731;28;20385;-70
2022/12/09 01:55:49;;;;;;;11.40;9.10;;;-1.00;99.90;;;;;;5035403;28;20404;-69
2022/12/09 01:58:16;;;;;;;9.52;8.35;;;-1.00;99.90;;;;;;5053328;28;20385;-69
2022/12/09 02:00:43;;;;;;;11.90;8.63;;;-1.00;99.90;;;;;;5053519;28;20381;-69
2022/12/09 02:03:09;;;;;;;10.35;8.60;;;-1.00;99.90;;;;;;5052392;28;20876;-69
2022/12/09 02:05:35;;;;;;;9.52;8.02;;;-1.00;99.90;;;;;;5053430;28;20420;-69
2022/12/09 02:08:02;;;;;;;9.65;8.00;;;-1.10;99.90;;;;;;5053396;28;20477;-71
2022/12/09 02:10:28;;;;;;;11.32;8.77;;;-1.10;99.90;;;;;;5053175;28;20396;-70
2022/12/09 02:13:25;;;;;;;10.27;8.15;;;-1.10;99.90;;;;;;5052561;28;20394;-69
2022/12/09 02:15:54;;;;;;;10.52;8.45;;;-1.10;99.90;;;;;;5053115;28;20432;-70
2022/12/09 02:18:28;;;;;;;9.15;8.02;;;-0.90;99.90;;;;;;5035211;28;20402;-70
2022/12/09 02:21:00;;;;;;;10.20;7.82;;;-0.80;99.90;;;;;;5053156;28;20393;-70
2022/12/09 02:23:37;;;;;;;9.93;7.70;;;-1.00;99.90;;;;;;5052497;28;20378;-70
2022/12/09 02:26:24;;;;;;;11.05;8.18;;;-0.90;99.90;;;;;;5053473;28;20451;-70
2022/12/09 02:29:20;;;;;;;10.30;8.60;;;-0.80;99.90;;;;;;5053541;28;20404;-70
2022/12/09 02:32:07;;;;;;;9.80;8.15;;;-0.90;99.90;;;;;;5053720;28;20408;-70
2022/12/09 02:34:39;;;;;;;10.27;8.00;;;-0.80;99.90;;;;;;5035320;28;20478;-69
2022/12/09 02:37:13;;;;;;;9.48;7.85;;;-0.60;99.90;;;;;;5054162;28;20397;-70
2022/12/09 02:39:50;;;;;;;9.50;8.25;;;-0.50;99.90;;;;;;5052733;28;20388;-69
2022/12/09 02:42:20;;;;;;;10.10;8.07;;;-0.50;99.90;;;;;;5053094;28;20886;-69
2022/12/09 02:44:48;;;;;;;9.23;8.13;;;-0.60;99.90;;;;;;5033874;28;20853;-69
2022/12/09 02:47:17;;;;;;;9.60;7.78;;;-0.60;99.90;;;;;;5034681;28;20385;-69
2022/12/09 02:49:45;;;;;;;10.20;8.00;;;-0.60;99.90;;;;;;5052616;28;20907;-69
2022/12/09 02:52:12;;;;;;;12.07;9.50;;;-0.60;99.90;;;;;;5052279;28;20390;-70
2022/12/09 02:54:39;;;;;;;12.65;9.73;;;-0.40;99.90;;;;;;5051621;28;20405;-69
2022/12/09 02:57:11;;;;;;;13.15;10.10;;;-0.30;99.90;;;;;;5052330;28;20484;-70
2022/12/09 02:59:37;;;;;;;13.50;10.48;;;-0.30;99.90;;;;;;5052276;28;20397;-70
2022/12/09 03:02:24;;;;;;;15.17;11.37;;;-0.50;99.90;;;;;;5052281;28;20393;-69
2022/12/09 03:05:22;;;;;;;15.57;12.52;;;-0.50;99.90;;;;;;5051838;28;20396;-70
2022/12/09 03:08:02;;;;;;;16.33;12.60;;;-0.50;99.90;;;;;;5052253;28;20396;-69
2022/12/09 03:10:37;;;;;;;15.30;12.70;;;-0.50;99.90;;;;;;5052380;28;20906;-70
2022/12/09 03:13:18;;;;;;;16.50;13.00;;;-0.40;99.90;;;;;;5051797;28;20451;-70
2022/12/09 03:15:49;;;;;;;16.50;13.02;;;-0.30;99.90;;;;;;5052555;28;20401;-70
2022/12/09 03:18:19;;;;;;;16.73;12.88;;;-0.20;99.90;;;;;;5052639;28;20747;-70
2022/12/09 03:20:47;;;;;;;16.73;13.20;;;-0.30;99.90;;;;;;5052022;28;20381;-70
2022/12/09 03:23:15;;;;;;;15.70;13.32;;;-0.30;99.90;;;;;;5051197;28;20377;-70
2022/12/09 03:25:46;;;;;;;17.63;14.00;;;-0.40;99.90;;;;;;5051892;28;20419;-69
2022/12/09 03:28:19;;;;;;;15.48;12.50;;;-0.50;99.90;;;;;;5051738;28;20396;-70
2022/12/09 03:30:46;;;;;;;17.48;13.70;;;-0.40;99.90;;;;;;5051577;28;20415;-69
2022/12/09 03:33:14;;;;;;;15.83;12.90;;;-0.20;99.90;;;;;;5051094;28;20425;-69
2022/12/09 03:35:51;;;;;;;16.35;12.50;;;-0.30;99.90;;;;;;5033773;28;20409;-69
2022/12/09 03:38:20;;;;;;;17.40;13.23;;;-0.10;99.90;;;;;;5033602;28;20412;-68
2022/12/09 03:40:52;;;;;;;16.77;13.20;;;-0.10;99.90;;;;;;5051613;28;20385;-69
2022/12/09 03:43:29;;;;;;;20.30;14.70;;;-0.30;99.90;;;;;;5051220;28;20381;-69
2022/12/09 03:45:55;;;;;;;15.02;12.80;;;-0.20;99.90;;;;;;5051939;28;20380;-69
2022/12/09 03:48:22;;;;;;;16.80;13.50;;;-0.20;99.90;;;;;;5051909;28;20382;-69
2022/12/09 03:51:18;;;;;;;18.25;15.27;;;-0.20;99.90;;;;;;5050491;28;20381;-70
2022/12/09 03:53:57;;;;;;;17.70;13.80;;;-0.20;99.90;;;;;;5049049;28;20401;-70
2022/12/09 03:56:27;;;;;;;17.75;14.05;;;-0.40;99.90;;;;;;5051815;28;20401;-69
2022/12/09 03:58:55;;;;;;;17.58;13.73;;;-0.30;99.90;;;;;;5051627;28;20389;-69
2022/12/09 04:01:23;;;;;;;17.42;13.48;;;-0.20;99.90;;;;;;5051780;28;20515;-70
2022/12/09 04:03:51;;;;;;;17.27;13.45;;;-0.20;99.90;;;;;;5051103;28;20424;-69
2022/12/09 04:06:17;;;;;;;19.98;14.48;;;-0.30;99.90;;;;;;5051715;28;20392;-68
2022/12/09 04:08:43;;;;;;;19.35;14.27;;;-0.40;99.90;;;;;;5033422;28;20389;-69
2022/12/09 04:11:09;;;;;;;16.80;14.30;;;-0.40;99.90;;;;;;5051651;28;20878;-70
2022/12/09 04:13:34;;;;;;;17.67;14.40;;;-0.70;99.90;;;;;;5050980;28;20759;-69
2022/12/09 04:16:00;;;;;;;21.00;15.80;;;-0.60;99.90;;;;;;5051498;28;20405;-69
2022/12/09 04:18:25;;;;;;;22.40;15.60;;;-0.40;99.90;;;;;;5051051;28;20466;-69
2022/12/09 04:20:51;;;;;;;18.35;14.80;;;-0.30;99.90;;;;;;5051392;28;20380;-70
2022/12/09 04:23:16;;;;;;;20.83;16.20;;;-0.30;99.90;;;;;;5050689;28;20396;-70
2022/12/09 04:25:42;;;;;;;20.40;16.15;;;-0.40;99.90;;;;;;5051317;28;20377;-70
2022/12/09 04:28:07;;;;;;;20.00;15.43;;;-0.30;99.90;;;;;;5051314;28;20802;-70
2022/12/09 04:30:33;;;;;;;19.35;14.88;;;-0.70;99.90;;;;;;5051236;28;20388;-69
2022/12/09 04:32:59;;;;;;;21.58;16.92;;;-0.60;99.90;;;;;;5050372;28;20395;-69
2022/12/09 04:35:26;;;;;;;20.25;14.85;;;-0.50;99.90;;;;;;5051318;28;20765;-69
2022/12/09 04:37:51;;;;;;;19.30;15.20;;;-0.40;99.90;;;;;;5051119;28;20393;-70
2022/12/09 04:40:18;;;;;;;21.27;16.23;;;-0.50;99.90;;;;;;5051153;28;20388;-70
2022/12/09 04:42:44;;;;;;;20.85;16.15;;;-0.50;99.90;;;;;;5032545;28;20412;-70
2022/12/09 04:45:09;;;;;;;21.52;16.05;;;-0.60;99.90;;;;;;5050983;28;20787;-70
2022/12/09 04:47:35;;;;;;;20.13;15.50;;;-0.40;99.90;;;;;;5051328;28;20389;-69
2022/12/09 04:50:00;;;;;;;21.13;16.90;;;-0.40;99.90;;;;;;5051122;28;20385;-70
2022/12/09 04:52:26;;;;;;;21.30;15.80;;;-0.50;99.90;;;;;;5050620;28;20443;-70
2022/12/09 04:54:51;;;;;;;19.10;15.40;;;-0.30;99.90;;;;;;5050733;28;20397;-69
2022/12/09 04:57:17;;;;;;;20.60;15.63;;;-0.30;99.90;;;;;;5050781;28;20496;-69
2022/12/09 04:59:43;;;;;;;22.15;16.83;;;-0.60;99.90;;;;;;5050994;28;20397;-69
2022/12/09 05:02:09;;;;;;;21.00;15.68;;;-0.40;99.90;;;;;;5051376;28;20385;-69
2022/12/09 05:04:34;;;;;;;22.85;16.77;;;-0.70;99.90;;;;;;5036189;28;20393;-69
2022/12/09 05:07:00;;;;;;;23.50;16.60;;;-0.80;99.90;;;;;;5054607;28;20396;-70
2022/12/09 05:09:25;;;;;;;23.20;17.67;;;-0.80;99.90;;;;;;5054489;28;20529;-69
2022/12/09 05:11:52;;;;;;;23.33;17.90;;;-0.80;99.90;;;;;;5054460;28;20809;-70
2022/12/09 05:14:17;;;;;;;26.38;18.85;;;-0.70;99.90;;;;;;5053872;28;20377;-69
2022/12/09 05:16:43;;;;;;;23.03;17.57;;;-0.80;99.90;;;;;;5054487;28;20883;-68
2022/12/09 05:19:09;;;;;;;22.47;17.47;;;-0.90;99.90;;;;;;5054461;28;20385;-69
2022/12/09 05:21:34;;;;;;;26.90;18.55;;;-0.90;99.90;;;;;;5054739;28;20859;-69
2022/12/09 05:24:03;;;;;;;25.17;18.83;;;-0.70;99.90;;;;;;5053942;28;20476;-68
2022/12/09 05:26:29;;;;;;;26.00;18.60;;;-0.60;99.90;;;;;;5054412;28;20733;-68
2022/12/09 05:28:54;;;;;;;27.40;18.13;;;-0.70;99.90;;;;;;5054511;28;20527;-69
2022/12/09 05:31:21;;;;;;;28.80;18.30;;;-0.60;99.90;;;;;;5036544;28;20397;-69
2022/12/09 05:33:48;;;;;;;24.80;17.45;;;-0.50;99.90;;;;;;5053884;28;20404;-69
2022/12/09 05:36:15;;;;;;;25.70;18.15;;;-0.70;99.90;;;;;;5054621;28;20389;-69
2022/12/09 05:38:41;;;;;;;23.67;17.65;;;-0.70;99.90;;;;;;5055194;28;20391;-69
2022/12/09 05:41:07;;;;;;;23.75;18.13;;;-0.70;99.90;;;;;;5054975;28;20464;-69
2022/12/09 05:43:33;;;;;;;23.20;15.80;;;-0.50;99.90;;;;;;5053343;28;20903;-68
2022/12/09 05:46:00;;;;;;;25.60;17.17;;;-0.50;99.90;;;;;;5053734;28;20385;-68
2022/12/09 05:48:25;;;;;;;23.70;16.80;;;-0.50;99.90;;;;;;5054064;28;20389;-68
2022/12/09 05:50:59;;;;;;;25.33;17.50;;;-0.70;99.90;;;;;;5053637;28;20392;-68
2022/12/09 05:53:25;;;;;;;23.70;16.52;;;-0.80;99.90;;;;;;5053407;28;20763;-69
2022/12/09 05:55:51;;;;;;;23.00;17.55;;;-0.70;99.90;;;;;;5054029;28;20398;-69
2022/12/09 05:58:16;;;;;;;22.00;16.50;;;-0.60;99.90;;;;;;5053951;28;20397;-69
2022/12/09 06:00:42;;;;;;;23.20;16.57;;;-0.50;99.90;;;;;;5052466;28;20381;-68
2022/12/09 06:03:07;;;;;;;21.53;16.50;;;-0.60;99.90;;;;;;5053401;28;20383;-69
2022/12/09 06:05:33;;;;;;;22.33;16.63;;;-0.70;99.90;;;;;;5053825;28;20411;-70
2022/12/09 06:07:58;;;;;;;22.17;16.00;;;-0.70;99.90;;;;;;5053938;28;20393;-69
2022/12/09 06:10:24;;;;;;;22.70;17.17;;;-0.60;99.90;;;;;;5053509;28;20404;-69
2022/12/09 06:12:53;;;;;;;23.08;16.13;;;-0.50;99.90;;;;;;5053245;28;20485;-70
2022/12/09 06:15:19;;;;;;;22.65;16.67;;;-0.50;99.90;;;;;;5035035;28;20411;-70
2022/12/09 06:17:45;;;;;;;22.63;16.77;;;-0.40;99.90;;;;;;5053631;28;20465;-70
2022/12/09 06:20:10;;;;;;;21.45;16.80;;;-0.50;99.90;;;;;;5053259;28;20366;-69
2022/12/09 06:22:36;;;;;;;24.85;16.58;;;-0.40;99.90;;;;;;5052576;28;20775;-70
2022/12/09 06:25:01;;;;;;;21.15;16.95;;;-0.50;99.90;;;;;;5053675;28;20424;-69
2022/12/09 06:27:27;;;;;;;21.00;16.38;;;-0.40;99.90;;;;;;5053398;28;20406;-70
2022/12/09 06:29:53;;;;;;;21.33;16.88;;;-0.20;99.90;;;;;;5053618;28;20385;-70
2022/12/09 06:32:18;;;;;;;19.40;15.13;;;-0.20;99.90;;;;;;5053124;28;20385;-72
2022/12/09 06:34:44;;;;;;;20.80;16.70;;;-0.30;99.90;;;;;;5052678;28;20419;-71
2022/12/09 06:37:09;;;;;;;22.60;15.60;;;-0.30;99.90;;;;;;5053512;28;20490;-70
2022/12/09 06:39:35;;;;;;;20.93;15.60;;;-0.50;99.90;;;;;;5053204;28;20390;-69
2022/12/09 06:42:03;;;;;;;23.98;17.00;;;-0.50;99.90;;;;;;5053065;28;20385;-70
2022/12/09 06:44:28;;;;;;;21.90;16.90;;;-0.60;99.90;;;;;;5052651;28;20373;-71
2022/12/09 06:46:54;;;;;;;21.48;16.50;;;-0.40;99.90;;;;;;5053132;28;20385;-72
2022/12/09 06:49:19;;;;;;;20.27;15.90;;;-0.30;99.90;;;;;;5053062;28;20390;-70
2022/12/09 06:51:45;;;;;;;19.13;15.93;;;-0.20;99.90;;;;;;5052945;28;20399;-69
2022/12/09 06:54:11;;;;;;;19.67;15.70;;;-0.30;99.90;;;;;;5052304;28;20391;-70
2022/12/09 06:56:37;;;;;;;18.25;14.38;;;-0.40;99.90;;;;;;5053002;28;20401;-70
2022/12/09 06:59:08;;;;;;;26.92;16.88;;;-0.40;99.90;;;;;;5052699;28;20442;-69
2022/12/09 07:01:34;;;;;;;22.02;16.23;;;-0.10;99.90;;;;;;5052444;28;20404;-69
2022/12/09 07:03:59;;;;;;;20.23;16.60;;;-0.20;99.90;;;;;;5051981;28;20949;-69
2022/12/09 07:06:39;;;;;;;20.75;15.85;;;-0.10;99.90;;;;;;5052698;28;20397;-71
2022/12/09 07:09:09;;;;;;;18.95;14.95;;;-0.10;99.90;;;;;;5052460;28;20472;-69
2022/12/09 07:11:34;;;;;;;19.75;15.20;;;-0.10;99.90;;;;;;5050303;28;20891;-69
2022/12/09 07:14:01;;;;;;;19.67;14.60;;;-0.10;99.90;;;;;;5051252;28;20392;-70
2022/12/09 07:16:27;;;;;;;18.70;15.55;;;-0.10;99.90;;;;;;5049815;28;20986;-70
2022/12/09 07:18:53;;;;;;;19.25;14.70;;;-0.10;99.90;;;;;;5051755;28;20386;-70
2022/12/09 07:21:20;;;;;;;20.98;14.80;;;-0.10;99.90;;;;;;5051715;28;20385;-68
2022/12/09 07:23:46;;;;;;;18.48;14.93;;;-0.20;99.90;;;;;;5051109;28;20898;-69
2022/12/09 07:26:12;;;;;;;17.95;14.30;;;-0.10;99.90;;;;;;5051616;28;20743;-70
2022/12/09 07:28:41;;;;;;;23.17;16.02;;;-0.30;99.90;;;;;;5051896;28;20385;-70
2022/12/09 07:31:15;;;;;;;21.70;15.93;;;-0.50;99.90;;;;;;5033645;28;20393;-69
2022/12/09 07:33:40;;;;;;;20.35;15.75;;;-0.30;99.90;;;;;;5035073;28;20386;-70
2022/12/09 07:36:06;;;;;;;23.10;16.35;;;-0.30;99.90;;;;;;5051518;28;20794;-71
2022/12/09 07:38:31;;;;;;;20.20;15.32;;;-0.30;99.90;;;;;;5051812;28;20401;-70
2022/12/09 07:41:04;;;;;;;20.30;16.23;;;-0.10;99.90;;;;;;5051720;28;20416;-70
2022/12/09 07:43:32;;;;;;;19.48;15.15;;;-0.20;99.90;;;;;;5050492;28;20428;-70
2022/12/09 07:45:58;;;;;;;19.63;14.50;;;-0.20;99.90;;;;;;5051929;28;20385;-70
2022/12/09 07:48:23;;;;;;;17.45;14.65;;;-0.10;99.90;;;;;;5051797;28;20476;-70
2022/12/09 07:50:49;;;;;;;19.85;15.88;;;-0.10;99.90;;;;;;5074365;22;20421;-68
2022/12/09 07:53:14;;;;;;;22.95;15.57;;;-0.20;99.90;;;;;;5069385;28;20395;-69
2022/12/09 07:55:40;;;;;;;19.88;15.77;;;-0.20;99.90;;;;;;5070949;28;20777;-70
2022/12/09 07:58:05;;;;;;;18.20;15.40;;;-0.30;99.90;;;;;;5070874;28;20807;-69
2022/12/09 08:00:31;;;;;;;18.98;16.40;;;-0.40;99.90;;;;;;5070813;28;20463;-70
2022/12/09 08:02:56;;;;;;;19.17;15.00;;;-0.10;99.90;;;;;;5069480;28;20390;-69
2022/12/09 08:05:22;;;;;;;18.42;14.35;;;-0.10;99.90;;;;;;5070654;28;20428;-70
2022/12/09 08:07:47;;;;;;;20.00;15.80;;;-0.10;99.90;;;;;;5070708;28;20394;-69
2022/12/09 08:10:13;;;;;;;22.20;16.75;;;-0.30;99.90;;;;;;5069648;28;20383;-69
2022/12/09 08:12:38;;;;;;;19.25;15.90;;;-0.20;99.90;;;;;;5051427;28;20392;-69
2022/12/09 08:15:04;;;;;;;20.17;15.95;;;0.10;99.90;;;;;;5070932;28;20522;-69
2022/12/09 08:17:31;;;;;;;19.63;15.63;;;0.00;99.90;;;;;;5068433;28;20399;-70
2022/12/09 08:19:57;;;;;;;20.23;16.95;;;0.20;99.90;;;;;;5070091;28;20375;-70
2022/12/09 08:22:22;;;;;;;24.08;16.15;;;0.50;99.90;;;;;;5070579;28;20367;-70
2022/12/09 08:24:48;;;;;;;19.50;14.77;;;0.30;99.90;;;;;;5069460;28;20814;-70
2022/12/09 08:27:13;;;;;;;18.27;14.90;;;0.20;99.90;;;;;;5061099;28;20461;-70
2022/12/09 08:29:39;;;;;;;20.00;14.98;;;0.30;99.90;;;;;;5070554;28;20392;-70
2022/12/09 08:32:05;;;;;;;19.52;16.13;;;0.30;99.90;;;;;;5070492;28;20766;-70
2022/12/09 08:34:30;;;;;;;19.63;14.97;;;0.40;99.90;;;;;;5069698;28;20388;-70
2022/12/09 08:36:56;;;;;;;21.00;15.50;;;0.50;99.90;;;;;;5069832;28;20404;-70
2022/12/09 08:39:32;;;;;;;19.50;15.30;;;0.50;99.90;;;;;;5070670;28;20388;-70
2022/12/09 08:42:00;;;;;;;20.05;16.33;;;0.40;99.90;;;;;;5052452;28;20431;-70
2022/12/09 08:44:25;;;;;;;20.08;15.20;;;0.40;99.90;;;;;;5069738;28;20415;-70
2022/12/09 08:46:51;;;;;;;18.50;15.05;;;0.40;99.90;;;;;;5070268;28;20779;-70
2022/12/09 08:49:20;;;;;;;21.98;16.70;;;0.40;99.90;;;;;;5070253;28;20406;-70
2022/12/09 08:51:47;;;;;;;19.67;15.02;;;0.60;99.90;;;;;;5070334;28;20773;-70
2022/12/09 08:54:13;;;;;;;18.73;15.35;;;0.70;99.90;;;;;;5069469;28;20391;-70
2022/12/09 08:56:39;;;;;;;18.30;14.60;;;0.40;99.90;;;;;;5070386;28;20406;-70
2022/12/09 08:59:05;;;;;;;20.30;14.50;;;0.50;99.90;;;;;;5070524;28;20383;-70
2022/12/09 09:01:33;;;;;;;16.75;14.00;;;0.50;99.90;;;;;;5052432;28;20384;-70
2022/12/09 09:04:19;;;;;;;17.17;14.02;;;0.60;99.90;;;;;;5069466;28;20394;-70
2022/12/09 09:06:48;;;;;;;18.63;14.25;;;0.60;99.90;;;;;;5070420;28;20516;-70
2022/12/09 09:09:14;;;;;;;17.83;14.47;;;0.60;99.90;;;;;;5070271;28;20836;-70
2022/12/09 09:11:41;;;;;;;18.75;14.70;;;0.60;99.90;;;;;;5069744;28;20402;-70
2022/12/09 09:14:09;;;;;;;22.85;14.68;;;0.60;99.90;;;;;;5069220;28;20909;-70
2022/12/09 09:16:41;;;;;;;18.87;15.23;;;0.60;99.90;;;;;;5070141;28;20399;-70
2022/12/09 09:19:20;;;;;;;20.95;15.70;;;0.60;99.90;;;;;;5070427;28;20866;-70
2022/12/09 09:21:45;;;;;;;21.50;16.08;;;0.40;99.90;;;;;;5069980;28;20455;-71
2022/12/09 09:24:13;;;;;;;20.98;15.32;;;0.20;99.90;;;;;;5051461;28;20479;-70
2022/12/09 09:26:41;;;;;;;22.95;16.42;;;0.00;99.90;;;;;;5051875;28;20943;-70
2022/12/09 09:29:09;;;;;;;19.05;16.20;;;0.10;99.90;;;;;;5070175;28;20943;-71
2022/12/09 09:31:34;;;;;;;18.83;15.88;;;0.20;99.90;;;;;;5070039;28;20906;-71
2022/12/09 09:34:00;;;;;;;19.80;15.43;;;0.20;99.90;;;;;;5068416;28;20406;-69
2022/12/09 09:36:25;;;;;;;20.33;15.03;;;0.40;99.90;;;;;;5069724;28;20387;-69
2022/12/09 09:38:53;;;;;;;20.50;15.30;;;0.30;99.90;;;;;;5069893;28;20551;-69
2022/12/09 09:41:36;;;;;;;19.15;15.55;;;0.40;99.90;;;;;;5069868;28;20425;-70
2022/12/09 09:44:03;;;;;;;19.08;14.82;;;0.50;99.90;;;;;;5069225;28;20379;-69
2022/12/09 09:46:41;;;;;;;17.35;14.70;;;0.40;99.90;;;;;;5067388;28;20384;-69
2022/12/09 09:49:13;;;;;;;15.43;13.60;;;0.60;99.90;;;;;;5068914;28;20391;-69
2022/12/09 09:51:39;;;;;;;18.15;14.82;;;0.40;99.90;;;;;;5055388;28;20411;-70
2022/12/09 09:54:08;;;;;;;17.93;14.50;;;0.40;99.90;;;;;;5054800;28;20440;-70
2022/12/09 09:56:39;;;;;;;16.60;13.95;;;1.30;99.90;;;;;;5073543;28;20403;-69
2022/12/09 09:59:20;;;;;;;18.15;15.55;;;0.30;99.90;;;;;;5055841;28;20376;-70
2022/12/09 10:01:55;;;;;;;18.15;14.48;;;0.30;99.90;;;;;;5073542;28;20383;-70
2022/12/09 10:04:35;;;;;;;21.40;14.98;;;0.40;99.90;;;;;;5072695;28;20384;-69
2022/12/09 10:07:04;;;;;;;18.88;14.88;;;0.60;99.90;;;;;;5073452;28;20730;-69
2022/12/09 10:09:44;;;;;;;16.92;14.32;;;0.70;99.90;;;;;;5073103;28;20395;-70
2022/12/09 10:12:28;;;;;;;17.30;13.63;;;0.80;99.90;;;;;;5073176;28;20775;-70
2022/12/09 10:15:00;;;;;;;16.13;14.20;;;0.50;99.90;;;;;;5072705;28;20398;-69
2022/12/09 10:17:26;;;;;;;18.25;13.50;;;0.60;99.90;;;;;;5073090;28;20531;-69
2022/12/09 10:19:59;;;;;;;19.25;15.70;;;0.30;99.90;;;;;;5073064;28;20401;-70
2022/12/09 10:22:28;;;;;;;20.70;16.13;;;0.40;99.90;;;;;;5072717;28;20410;-69
2022/12/09 10:24:58;;;;;;;17.88;14.48;;;0.80;99.90;;;;;;5072282;28;20379;-69
2022/12/09 10:27:33;;;;;;;20.92;15.05;;;0.90;99.90;;;;;;5073077;28;20785;-70
2022/12/09 10:30:07;;;;;;;18.45;15.20;;;0.90;99.90;;;;;;5072934;28;20780;-69
2022/12/09 10:32:34;;;;;;;18.27;14.25;;;0.70;99.90;;;;;;5072299;28;20466;-69
2022/12/09 10:35:10;;;;;;;17.42;14.50;;;1.00;99.90;;;;;;5072869;28;20387;-69
2022/12/09 10:37:36;;;;;;;18.65;13.93;;;1.10;99.90;;;;;;5072748;28;20537;-69
2022/12/09 10:40:10;;;;;;;19.50;15.23;;;1.10;99.90;;;;;;5072826;28;20859;-69
2022/12/09 10:45:28;;;;;;;17.10;14.50;;;0.80;99.90;;;;;;5072663;28;20470;-69
2022/12/09 10:47:54;;;;;;;15.98;14.23;;;1.00;99.90;;;;;;5072595;28;20372;-69
2022/12/09 10:50:33;;;;;;;16.73;13.73;;;0.90;99.90;;;;;;5072667;28;20850;-69
2022/12/09 10:53:11;;;;;;;16.70;14.30;;;0.80;99.90;;;;;;5071750;28;20431;-69
2022/12/09 10:55:41;;;;;;;17.05;13.90;;;1.00;99.90;;;;;;5072618;28;20411;-69
2022/12/09 10:58:15;;;;;;;18.73;14.10;;;1.00;99.90;;;;;;5072546;28;20388;-69
2022/12/09 11:00:41;;;;;;;16.27;13.75;;;1.00;99.90;;;;;;5071763;28;20384;-69
2022/12/09 11:03:25;;;;;;;17.35;14.80;;;0.90;99.90;;;;;;5071700;28;20384;-69
2022/12/09 11:05:56;;;;;;;19.75;14.90;;;0.90;99.90;;;;;;5072249;28;20611;-69
2022/12/09 11:08:22;;;;;;;18.52;15.40;;;1.10;99.90;;;;;;5072419;28;20431;-69
2022/12/09 11:10:49;;;;;;;18.00;14.10;;;1.10;99.90;;;;;;5071914;28;20419;-69
2022/12/09 11:13:18;;;;;;;15.27;13.40;;;1.10;99.90;;;;;;5071392;28;20390;-69
2022/12/09 11:15:50;;;;;;;19.57;15.43;;;1.10;99.90;;;;;;5054045;28;20478;-69
2022/12/09 11:18:34;;;;;;;17.83;14.60;;;0.90;99.90;;;;;;5072167;28;20454;-69
2022/12/09 11:21:03;;;;;;;15.75;13.63;;;1.20;99.90;;;;;;5071922;28;20375;-69
2022/12/09 11:23:29;;;;;;;17.52;13.80;;;1.30;99.90;;;;;;5071226;28;20372;-69
2022/12/09 11:25:59;;;;;;;17.58;14.65;;;1.10;99.90;;;;;;5071887;28;20467;-69
2022/12/09 11:28:28;;;;;;;15.43;13.50;;;1.20;99.90;;;;;;5071815;28;20404;-69
2022/12/09 11:30:57;;;;;;;19.52;14.85;;;1.20;99.90;;;;;;5053636;28;20379;-70
2022/12/09 11:33:24;;;;;;;17.40;13.88;;;1.10;99.90;;;;;;5070859;28;20383;-69
2022/12/09 11:36:01;;;;;;;17.10;13.70;;;1.30;99.90;;;;;;5071517;28;20500;-70
2022/12/09 11:38:33;;;;;;;17.77;14.50;;;1.20;99.90;;;;;;5071721;28;20387;-70
2022/12/09 11:41:10;;;;;;;19.70;14.23;;;1.00;99.90;;;;;;5071648;28;20403;-71
2022/12/09 11:43:41;;;;;;;16.52;14.23;;;1.00;99.90;;;;;;5070913;28;20384;-70
2022/12/09 11:46:30;;;;;;;20.15;14.68;;;1.10;99.90;;;;;;5053750;28;20812;-70
2022/12/09 11:49:01;;;;;;;19.25;15.38;;;1.00;99.90;;;;;;5071697;28;20484;-70
2022/12/09 11:51:37;;;;;;;15.13;13.15;;;1.20;99.90;;;;;;5071271;28;20437;-70
2022/12/09 11:54:22;;;;;;;16.90;14.60;;;1.20;99.90;;;;;;5070755;28;20400;-70
2022/12/09 11:56:50;;;;;;;18.33;14.60;;;1.30;99.90;;;;;;5071154;28;20762;-70
2022/12/09 11:59:29;;;;;;;19.65;14.45;;;1.20;99.90;;;;;;5071334;28;20380;-70
2022/12/09 12:02:39;;;;;;;17.50;15.00;;;1.30;99.90;;;;;;5071366;28;20421;-75
2022/12/09 12:05:22;;;;;;;17.05;14.60;;;1.10;99.90;;;;;;5071995;28;20386;-71
2022/12/09 12:08:01;;;;;;;20.50;15.18;;;1.10;99.90;;;;;;5073182;28;20893;-71
2022/12/09 12:11:11;;;;;;;22.80;15.00;;;1.20;99.90;;;;;;5072910;28;20442;-70
2022/12/09 12:13:45;;;;;;;18.92;14.88;;;1.20;99.90;;;;;;4990102;28;20402;-70
2022/12/09 12:16:33;;;;;;;19.00;15.02;;;1.40;99.90;;;;;;5065309;28;20814;-71
2022/12/09 12:19:16;;;;;;;21.08;16.40;;;1.30;99.90;;;;;;5072579;28;20385;-71
2022/12/09 12:22:08;;;;;;;21.20;15.82;;;1.30;99.90;;;;;;5072248;28;20413;-70
2022/12/09 12:24:52;;;;;;;18.27;15.63;;;1.10;99.90;;;;;;5071468;28;20469;-71
2022/12/09 12:27:31;;;;;;;18.08;15.25;;;1.10;99.90;;;;;;5071864;28;20806;-71
2022/12/09 12:30:19;;;;;;;20.10;16.00;;;1.10;99.90;;;;;;5071828;28;20420;-70
2022/12/09 12:33:12;;;;;;;17.35;14.38;;;1.00;99.90;;;;;;5070978;28;20443;-70
2022/12/09 12:35:53;;;;;;;17.23;15.38;;;0.90;99.90;;;;;;5070620;28;20553;-70
2022/12/09 12:38:49;;;;;;;20.13;14.95;;;1.20;99.90;;;;;;5070565;28;20418;-70
2022/12/09 12:41:39;;;;;;;17.43;14.50;;;1.00;99.90;;;;;;5052515;28;20823;-70
2022/12/09 12:47:16;;;;;;;17.55;15.50;;;1.20;99.90;;;;;;5070584;28;20390;-70
2022/12/09 12:49:48;;;;;;;17.10;14.20;;;1.20;99.90;;;;;;5052606;28;20447;-70
2022/12/09 12:52:39;;;;;;;17.92;14.25;;;1.30;99.90;;;;;;5070176;28;20426;-70